Time;durP1;ratioP1;P1;durP2;ratioP2;P2;SDS_P1;SDS_P2;PMS_P1;PMS_P2;Temp;Humidity;BMP_temperature;BMP_pressure;BME280_temperature;BME280_humidity;BME280_pressure;Samples;Min_cycle;Max_cycle;Signal;HPM_P1;HPM_P2
2022/10/27 00:00:44;;;;;;;8.40;1.38;;;18.90;46.80;;;;;;4862899;29;20132;-57
2022/10/27 00:03:13;;;;;;;8.27;1.35;;;18.90;47.70;;;;;;4862934;29;20045;-57
2022/10/27 00:05:42;;;;;;;4.45;1.55;;;18.90;46.80;;;;;;4863044;29;20050;-58
2022/10/27 00:08:13;;;;;;;5.15;1.25;;;18.90;49.00;;;;;;4862780;29;20082;-59
2022/10/27 00:10:41;;;;;;;4.53;1.17;;;18.90;47.80;;;;;;4862429;29;20049;-54
2022/10/27 00:13:08;;;;;;;5.22;1.58;;;18.90;48.40;;;;;;4862858;29;20050;-53
2022/10/27 00:15:35;;;;;;;7.47;1.35;;;18.90;47.90;;;;;;4862807;29;20042;-57
2022/10/27 00:18:08;;;;;;;4.28;1.67;;;18.90;47.30;;;;;;4862852;29;20061;-59
2022/10/27 00:20:34;;;;;;;9.25;1.60;;;18.90;47.20;;;;;;4862370;29;20491;-57
2022/10/27 00:23:02;;;;;;;6.47;1.13;;;18.90;49.00;;;;;;4862804;29;20053;-55
2022/10/27 00:25:28;;;;;;;10.48;1.73;;;18.90;47.90;;;;;;4862781;29;20057;-56
2022/10/27 00:27:55;;;;;;;3.92;1.30;;;18.90;49.30;;;;;;4862645;29;20042;-53
2022/10/27 00:30:22;;;;;;;5.35;1.55;;;18.90;47.40;;;;;;4862286;29;20041;-56
2022/10/27 00:32:49;;;;;;;7.82;1.73;;;18.90;49.00;;;;;;4862367;29;20080;-59
2022/10/27 00:35:16;;;;;;;5.47;1.40;;;18.90;48.90;;;;;;4876461;29;20045;-57
2022/10/27 00:37:43;;;;;;;6.78;1.40;;;18.90;48.70;;;;;;4862567;29;20046;-53
2022/10/27 00:40:10;;;;;;;3.40;1.30;;;18.90;49.50;;;;;;4862098;29;20051;-54
2022/10/27 00:42:37;;;;;;;4.65;1.20;;;18.90;50.70;;;;;;4862351;29;20045;-57
2022/10/27 00:45:04;;;;;;;7.55;1.63;;;18.90;49.60;;;;;;4862248;29;20053;-57
2022/10/27 00:47:34;;;;;;;1.35;0.82;;;18.90;48.00;;;;;;4862458;29;20049;-56
2022/10/27 00:50:05;;;;;;;6.68;1.60;;;18.90;49.20;;;;;;4861751;29;20128;-51
2022/10/27 00:52:43;;;;;;;5.22;1.30;;;18.90;49.10;;;;;;4862368;29;20137;-55
2022/10/27 00:55:24;;;;;;;9.05;1.77;;;18.90;48.50;;;;;;4862263;29;20049;-58
2022/10/27 00:57:55;;;;;;;4.25;1.52;;;18.90;48.50;;;;;;4862223;29;20049;-58
2022/10/27 01:00:21;;;;;;;8.93;1.55;;;18.90;48.10;;;;;;4861726;29;20049;-56
2022/10/27 01:02:49;;;;;;;3.67;1.15;;;18.90;48.40;;;;;;4861952;29;20050;-53
2022/10/27 01:05:22;;;;;;;4.13;0.93;;;18.90;50.60;;;;;;4861938;29;20069;-55
2022/10/27 01:07:51;;;;;;;5.55;1.60;;;18.90;51.10;;;;;;4861903;29;20049;-53
2022/10/27 01:10:18;;;;;;;5.30;1.20;;;18.90;48.50;;;;;;4861593;29;20049;-52
2022/10/27 01:12:46;;;;;;;5.57;0.88;;;18.90;50.00;;;;;;4861804;29;20515;-55
2022/10/27 01:15:13;;;;;;;6.25;1.60;;;18.90;50.60;;;;;;4861706;29;20038;-57
2022/10/27 01:18:05;;;;;;;4.57;1.00;;;18.80;50.30;;;;;;4861930;29;20105;-54
2022/10/27 01:21:07;;;;;;;3.35;1.02;;;18.90;50.20;;;;;;4861460;29;20452;-56
2022/10/27 01:24:04;;;;;;;3.75;0.75;;;18.90;50.00;;;;;;4811708;29;20138;-55
2022/10/27 01:27:13;;;;;;;3.58;1.08;;;18.80;49.10;;;;;;4861537;29;20049;-57
2022/10/27 01:30:05;;;;;;;3.97;1.00;;;18.80;49.10;;;;;;4858493;29;20386;-57
2022/10/27 01:32:38;;;;;;;4.43;1.00;;;18.80;48.00;;;;;;4861354;29;20124;-59
2022/10/27 01:35:30;;;;;;;2.30;1.20;;;18.80;47.90;;;;;;4861648;29;20041;-58
2022/10/27 01:38:18;;;;;;;3.50;1.20;;;18.80;48.30;;;;;;4861065;29;20045;-55
2022/10/27 01:40:53;;;;;;;3.38;1.20;;;18.80;46.90;;;;;;4875530;29;20392;-57
2022/10/27 01:43:25;;;;;;;2.35;0.60;;;18.80;49.90;;;;;;4861390;29;20056;-56
2022/10/27 01:45:54;;;;;;;4.35;0.70;;;18.80;47.70;;;;;;4861395;29;20042;-57
2022/10/27 01:48:22;;;;;;;3.63;0.85;;;18.80;48.50;;;;;;4861023;29;20045;-57
2022/10/27 01:50:49;;;;;;;2.88;0.80;;;18.80;49.40;;;;;;4861101;29;20046;-50
2022/10/27 01:53:31;;;;;;;5.07;0.85;;;18.80;47.90;;;;;;4861109;29;20046;-55
2022/10/27 01:56:03;;;;;;;4.28;1.05;;;18.80;46.40;;;;;;4861138;29;20049;-59
2022/10/27 01:58:58;;;;;;;3.92;1.67;;;18.80;49.00;;;;;;4860848;29;20507;-57
2022/10/27 02:01:43;;;;;;;2.95;1.23;;;18.80;47.00;;;;;;4861183;29;20053;-54
2022/10/27 02:04:32;;;;;;;2.72;0.73;;;18.80;47.90;;;;;;4860844;29;20049;-57
2022/10/27 02:07:13;;;;;;;3.83;1.02;;;18.80;48.20;;;;;;4860781;29;20041;-57
2022/10/27 02:09:45;;;;;;;2.95;0.80;;;18.80;50.10;;;;;;4860563;29;20052;-57
2022/10/27 02:12:20;;;;;;;4.85;1.30;;;18.80;48.30;;;;;;4860906;29;20045;-58
2022/10/27 02:14:50;;;;;;;3.42;0.70;;;18.80;47.50;;;;;;4860970;29;20041;-59
2022/10/27 02:17:20;;;;;;;2.95;0.88;;;18.80;47.90;;;;;;4860738;29;20050;-57
2022/10/27 02:19:49;;;;;;;3.55;0.93;;;18.80;49.20;;;;;;4860334;29;20098;-57
2022/10/27 02:22:16;;;;;;;2.67;1.20;;;18.80;48.40;;;;;;4860261;29;20056;-56
2022/10/27 02:24:43;;;;;;;3.25;0.55;;;18.80;47.90;;;;;;4860722;29;20461;-56
2022/10/27 02:27:23;;;;;;;6.35;1.50;;;18.80;47.40;;;;;;4859248;29;20058;-52
2022/10/27 02:29:57;;;;;;;5.95;1.00;;;18.80;48.00;;;;;;4860255;29;20440;-58
2022/10/27 02:32:25;;;;;;;3.95;1.10;;;18.80;48.30;;;;;;4874486;29;20049;-57
2022/10/27 02:34:53;;;;;;;4.43;1.30;;;18.80;48.70;;;;;;4860673;29;20076;-57
2022/10/27 02:37:26;;;;;;;5.20;1.05;;;18.80;47.00;;;;;;4859152;29;20057;-58
2022/10/27 02:39:52;;;;;;;;;;;18.80;48.40;;;;;;4860680;29;20140;-57
2022/10/27 02:42:19;;;;;;;3.83;1.45;;;18.70;47.60;;;;;;4860452;29;19935;-56
2022/10/27 02:44:46;;;;;;;3.53;0.73;;;18.70;47.40;;;;;;4860553;29;20121;-54
2022/10/27 02:47:13;;;;;;;3.42;0.98;;;18.80;47.40;;;;;;4860369;29;20052;-59
2022/10/27 02:49:40;;;;;;;4.40;1.20;;;18.80;46.80;;;;;;4860266;29;20411;-54
2022/10/27 02:52:07;;;;;;;5.75;1.02;;;18.80;47.00;;;;;;4860607;29;20429;-57
2022/10/27 02:54:33;;;;;;;2.67;1.23;;;18.70;48.30;;;;;;4860412;29;20097;-55
2022/10/27 02:57:01;;;;;;;1.75;0.73;;;18.80;47.00;;;;;;4860271;29;20053;-58
2022/10/27 02:59:27;;;;;;;4.20;0.93;;;18.80;48.00;;;;;;4859952;29;20381;-61
2022/10/27 03:01:54;;;;;;;4.53;2.00;;;18.70;47.90;;;;;;4859956;29;20053;-53
2022/10/27 03:04:21;;;;;;;3.88;1.42;;;18.70;46.50;;;;;;4860134;29;20048;-56
2022/10/27 03:06:48;;;;;;;2.08;0.80;;;18.80;48.50;;;;;;4860239;29;20050;-55
2022/10/27 03:09:15;;;;;;;4.97;1.25;;;18.80;46.40;;;;;;4859812;29;20102;-54
2022/10/27 03:11:41;;;;;;;3.05;0.90;;;18.80;49.60;;;;;;4860060;29;20042;-56
2022/10/27 03:14:12;;;;;;;4.15;1.02;;;18.70;48.20;;;;;;4860108;29;20136;-57
2022/10/27 03:16:38;;;;;;;3.35;0.80;;;18.70;47.50;;;;;;4860216;29;20045;-53
2022/10/27 03:19:05;;;;;;;3.88;0.98;;;18.70;47.20;;;;;;4860031;29;20106;-58
2022/10/27 03:21:32;;;;;;;4.38;1.05;;;18.80;47.30;;;;;;4860658;29;20124;-54
2022/10/27 03:23:59;;;;;;;1.63;0.90;;;18.70;48.30;;;;;;4860035;29;20053;-58
2022/10/27 03:26:26;;;;;;;2.85;1.10;;;18.70;49.10;;;;;;4860157;29;20046;-57
2022/10/27 03:28:53;;;;;;;2.80;0.80;;;18.70;46.30;;;;;;4859953;29;20102;-55
2022/10/27 03:31:19;;;;;;;3.53;1.70;;;18.70;48.60;;;;;;4860039;29;20045;-56
2022/10/27 03:33:46;;;;;;;2.70;0.68;;;18.70;47.80;;;;;;4859958;29;20073;-56
2022/10/27 03:36:13;;;;;;;3.53;1.25;;;18.70;48.20;;;;;;4860093;29;20556;-58
2022/10/27 03:38:40;;;;;;;3.42;1.05;;;18.80;47.40;;;;;;4859761;29;20057;-58
2022/10/27 03:41:07;;;;;;;4.03;0.95;;;18.70;46.80;;;;;;4859984;29;20156;-57
2022/10/27 03:43:33;;;;;;;1.27;0.75;;;18.70;47.30;;;;;;4860044;29;20050;-56
2022/10/27 03:46:00;;;;;;;2.13;0.82;;;18.70;47.10;;;;;;4859856;29;20132;-57
2022/10/27 03:48:27;;;;;;;2.45;1.05;;;18.70;47.20;;;;;;4860692;29;20056;-57
2022/10/27 03:50:54;;;;;;;2.35;1.05;;;18.70;48.10;;;;;;4863287;29;20038;-58
2022/10/27 03:53:21;;;;;;;2.85;1.02;;;18.70;47.10;;;;;;4862725;29;20447;-57
2022/10/27 03:55:48;;;;;;;4.10;0.90;;;18.70;47.00;;;;;;4863269;29;20187;-56
2022/10/27 03:58:16;;;;;;;1.50;0.63;;;18.70;47.70;;;;;;4863134;29;20462;-56
2022/10/27 04:00:44;;;;;;;1.90;0.70;;;18.70;50.00;;;;;;4862826;29;20078;-58
2022/10/27 04:03:12;;;;;;;1.63;0.60;;;18.70;47.70;;;;;;4863152;29;20057;-52
2022/10/27 04:05:38;;;;;;;5.40;1.10;;;18.70;46.60;;;;;;4863011;29;20049;-57
2022/10/27 04:08:05;;;;;;;5.55;1.17;;;18.70;46.50;;;;;;4862836;29;20516;-53
2022/10/27 04:10:32;;;;;;;2.15;1.00;;;18.70;48.60;;;;;;4856959;29;20041;-57
2022/10/27 04:12:59;;;;;;;4.68;1.08;;;18.70;48.50;;;;;;4854248;29;20065;-55
2022/10/27 04:15:27;;;;;;;1.90;0.80;;;18.70;48.10;;;;;;4860326;29;20041;-55
2022/10/27 04:17:58;;;;;;;3.72;0.57;;;18.70;48.70;;;;;;4862823;29;20448;-58
2022/10/27 04:20:26;;;;;;;4.22;1.13;;;18.70;48.40;;;;;;4862469;29;20507;-58
2022/10/27 04:22:59;;;;;;;5.13;1.73;;;18.70;46.70;;;;;;4862678;29;20515;-57
2022/10/27 04:25:26;;;;;;;4.70;1.13;;;18.70;47.50;;;;;;4862737;29;20113;-56
2022/10/27 04:28:07;;;;;;;13.18;1.40;;;18.70;49.90;;;;;;4862591;29;20736;-59
2022/10/27 04:30:37;;;;;;;15.30;1.88;;;18.70;52.50;;;;;;4843590;29;20154;-57
2022/10/27 04:33:04;;;;;;;9.65;2.30;;;18.70;53.50;;;;;;4843460;29;20056;-59
2022/10/27 04:35:30;;;;;;;3.75;0.90;;;18.70;52.10;;;;;;4843870;29;20500;-54
2022/10/27 04:37:57;;;;;;;2.65;1.30;;;18.70;52.80;;;;;;4843755;29;20480;-55
2022/10/27 04:40:24;;;;;;;10.57;1.20;;;18.70;54.10;;;;;;4843377;29;20057;-56
2022/10/27 04:42:51;;;;;;;7.78;2.03;;;18.70;50.50;;;;;;4843743;29;20046;-56
2022/10/27 04:45:18;;;;;;;3.30;1.17;;;18.70;50.10;;;;;;4843456;29;20057;-56
2022/10/27 04:47:45;;;;;;;2.88;1.13;;;18.70;50.90;;;;;;4843596;29;20075;-58
2022/10/27 04:50:14;;;;;;;4.03;1.38;;;18.70;49.60;;;;;;4843412;29;20049;-58
2022/10/27 04:52:41;;;;;;;2.85;1.20;;;18.70;49.30;;;;;;4843500;29;20139;-55
2022/10/27 04:55:10;;;;;;;1.55;0.75;;;18.70;50.60;;;;;;4850964;29;20052;-54
2022/10/27 04:57:37;;;;;;;2.95;1.00;;;18.70;50.20;;;;;;4862592;29;20091;-56
2022/10/27 05:00:04;;;;;;;3.03;1.30;;;18.70;51.10;;;;;;4878706;29;20048;-58
2022/10/27 05:02:31;;;;;;;4.78;1.33;;;18.60;50.00;;;;;;4879271;29;20041;-54
2022/10/27 05:05:04;;;;;;;5.35;1.35;;;18.70;50.70;;;;;;4880737;29;20049;-59
2022/10/27 05:07:31;;;;;;;4.05;0.85;;;18.60;51.60;;;;;;4880462;29;20105;-55
2022/10/27 05:09:58;;;;;;;2.45;1.10;;;18.60;51.90;;;;;;4879846;29;20079;-57
2022/10/27 05:12:25;;;;;;;3.13;1.05;;;18.60;52.80;;;;;;4879896;29;20049;-58
2022/10/27 05:14:52;;;;;;;4.13;1.10;;;18.60;50.30;;;;;;4879910;29;20060;-55
2022/10/27 05:17:19;;;;;;;2.42;1.20;;;18.60;48.50;;;;;;4880199;29;20064;-57
2022/10/27 05:19:46;;;;;;;1.90;1.23;;;18.60;50.50;;;;;;4879636;29;20045;-56
2022/10/27 05:22:12;;;;;;;4.20;1.05;;;18.60;50.30;;;;;;4879092;29;20041;-56
2022/10/27 05:24:39;;;;;;;4.57;1.67;;;18.60;52.40;;;;;;4880213;29;20483;-57
2022/10/27 05:27:06;;;;;;;2.28;1.67;;;18.60;51.50;;;;;;4880102;29;20077;-54
2022/10/27 05:29:33;;;;;;;2.78;1.10;;;18.60;49.20;;;;;;4879662;29;20052;-54
2022/10/27 05:32:00;;;;;;;4.03;1.17;;;18.60;51.30;;;;;;4879918;29;20060;-52
2022/10/27 05:34:26;;;;;;;4.05;1.38;;;18.60;50.30;;;;;;4880043;29;20109;-54
2022/10/27 05:36:53;;;;;;;4.43;1.00;;;18.60;50.20;;;;;;4879672;29;20048;-56
2022/10/27 05:39:20;;;;;;;3.15;1.20;;;18.60;50.20;;;;;;4879596;29;20044;-59
2022/10/27 05:41:47;;;;;;;3.88;1.05;;;18.60;51.90;;;;;;4880008;29;20105;-62
2022/10/27 05:44:13;;;;;;;2.28;1.20;;;18.60;51.90;;;;;;4879919;29;20045;-57
2022/10/27 05:46:40;;;;;;;5.30;1.42;;;18.60;50.30;;;;;;4879814;29;20507;-55
2022/10/27 05:49:07;;;;;;;1.95;1.00;;;18.60;53.90;;;;;;4879360;29;20449;-55
2022/10/27 05:51:34;;;;;;;5.13;1.20;;;18.60;52.30;;;;;;4879699;29;20070;-56
2022/10/27 05:54:01;;;;;;;3.45;1.13;;;18.60;53.80;;;;;;4879411;29;20571;-55
2022/10/27 05:56:28;;;;;;;2.75;0.95;;;18.60;52.50;;;;;;4879524;29;20045;-56
2022/10/27 05:58:54;;;;;;;3.65;1.25;;;18.60;48.80;;;;;;4879263;29;20057;-55
2022/10/27 06:01:21;;;;;;;4.25;1.52;;;18.60;50.30;;;;;;4879376;29;20037;-55
2022/10/27 06:03:48;;;;;;;6.78;1.75;;;18.60;52.90;;;;;;4879522;29;20168;-57
2022/10/27 06:06:15;;;;;;;2.85;1.10;;;18.60;55.10;;;;;;4879433;29;20388;-55
2022/10/27 06:08:42;;;;;;;2.28;0.98;;;18.60;51.90;;;;;;4878878;29;20077;-59
2022/10/27 06:11:09;;;;;;;2.22;1.10;;;18.60;55.90;;;;;;4878628;29;20060;-57
2022/10/27 06:13:36;;;;;;;5.15;1.60;;;18.60;58.20;;;;;;4879465;29;20116;-59
2022/10/27 06:16:02;;;;;;;6.53;1.38;;;18.60;53.80;;;;;;4879257;29;20052;-56
2022/10/27 06:18:31;;;;;;;4.88;1.50;;;18.60;55.00;;;;;;4878989;29;20045;-55
2022/10/27 06:20:57;;;;;;;2.78;0.88;;;18.60;55.90;;;;;;4879148;29;20056;-58
2022/10/27 06:23:24;;;;;;;2.20;1.17;;;18.60;53.80;;;;;;4879187;29;20460;-54
2022/10/27 06:25:53;;;;;;;3.65;1.30;;;18.60;54.20;;;;;;4879382;29;20516;-56
2022/10/27 06:28:21;;;;;;;1.95;1.13;;;18.60;54.70;;;;;;4878838;29;20132;-59
2022/10/27 06:30:48;;;;;;;2.08;0.82;;;18.60;55.70;;;;;;4879102;29;20045;-59
2022/10/27 06:33:14;;;;;;;1.15;0.60;;;18.50;56.40;;;;;;4879186;29;20057;-54
2022/10/27 06:35:43;;;;;;;2.97;0.90;;;18.60;56.60;;;;;;4877644;29;20101;-59
2022/10/27 06:38:15;;;;;;;7.13;1.13;;;18.50;56.40;;;;;;4873999;29;20463;-56
2022/10/27 06:40:43;;;;;;;4.57;1.13;;;18.60;54.10;;;;;;4874702;29;20487;-57
2022/10/27 06:43:15;;;;;;;2.33;0.73;;;18.60;57.00;;;;;;4879190;29;20589;-59
2022/10/27 06:45:46;;;;;;;2.78;1.33;;;18.50;54.80;;;;;;4877779;29;20521;-56
2022/10/27 06:48:14;;;;;;;3.75;1.08;;;18.50;55.10;;;;;;4878995;29;20077;-57
2022/10/27 06:50:41;;;;;;;5.50;1.15;;;18.50;56.70;;;;;;4878621;29;20076;-54
2022/10/27 06:53:08;;;;;;;1.65;1.15;;;18.50;55.80;;;;;;4878912;29;20041;-55
2022/10/27 06:55:34;;;;;;;5.38;1.20;;;18.50;55.90;;;;;;4878814;29;20048;-58
2022/10/27 06:58:01;;;;;;;1.77;0.80;;;18.50;54.60;;;;;;4878894;29;20049;-57
2022/10/27 07:00:28;;;;;;;3.25;0.98;;;18.50;53.50;;;;;;4878504;29;20060;-54
2022/10/27 07:02:55;;;;;;;1.55;0.90;;;18.50;54.20;;;;;;4878628;29;20049;-56
2022/10/27 07:05:22;;;;;;;3.08;1.17;;;18.50;55.40;;;;;;4877418;29;20055;-58
2022/10/27 07:07:50;;;;;;;2.05;1.10;;;18.50;53.70;;;;;;4878760;29;20092;-57
2022/10/27 07:10:19;;;;;;;2.92;1.02;;;18.50;53.70;;;;;;4878001;29;20038;-53
2022/10/27 07:12:59;;;;;;;2.85;1.23;;;18.50;54.40;;;;;;4878736;29;20069;-57
2022/10/27 07:15:30;;;;;;;2.67;1.38;;;18.50;52.60;;;;;;4878898;29;20047;-58
2022/10/27 07:18:02;;;;;;;2.78;1.10;;;18.50;55.20;;;;;;4878905;29;20176;-58
2022/10/27 07:20:32;;;;;;;;;;;18.50;52.20;;;;;;4878938;29;20165;-57
2022/10/27 07:22:59;;;;;;;2.55;1.00;;;18.50;55.00;;;;;;4880659;29;19923;-59
2022/10/27 07:25:28;;;;;;;2.72;1.02;;;18.50;51.50;;;;;;4882321;29;20045;-56
2022/10/27 07:27:55;;;;;;;5.47;1.77;;;18.50;55.00;;;;;;4880794;29;20136;-57
2022/10/27 07:30:35;;;;;;;1.70;1.00;;;18.50;55.40;;;;;;4881690;29;20037;-58
2022/10/27 07:33:02;;;;;;;2.65;1.50;;;18.50;52.00;;;;;;4881969;29;20126;-57
2022/10/27 07:35:30;;;;;;;3.53;1.30;;;18.50;53.70;;;;;;4882125;29;20092;-56
2022/10/27 07:37:57;;;;;;;4.30;1.42;;;18.50;54.70;;;;;;4882176;29;20460;-55
2022/10/27 07:40:24;;;;;;;3.03;1.10;;;18.50;53.80;;;;;;4881458;29;20435;-53
2022/10/27 07:42:58;;;;;;;1.50;0.82;;;18.50;53.70;;;;;;4882020;29;20056;-58
2022/10/27 07:45:38;;;;;;;1.92;1.00;;;18.50;54.10;;;;;;4881698;29;20104;-58
2022/10/27 07:48:09;;;;;;;1.63;0.85;;;18.50;55.70;;;;;;4881997;29;20051;-57
2022/10/27 07:50:36;;;;;;;2.20;1.00;;;18.50;56.80;;;;;;4881341;29;20045;-57
2022/10/27 07:53:03;;;;;;;2.35;1.15;;;18.50;56.00;;;;;;4881841;29;20048;-54
2022/10/27 07:55:32;;;;;;;2.58;0.90;;;18.50;52.70;;;;;;4881432;29;20400;-55
2022/10/27 07:58:01;;;;;;;2.92;1.15;;;18.50;53.10;;;;;;4881452;29;20396;-58
2022/10/27 08:00:30;;;;;;;3.10;0.95;;;18.50;55.40;;;;;;4881270;29;20377;-56
2022/10/27 08:03:01;;;;;;;3.00;0.93;;;18.50;54.80;;;;;;4881383;29;20108;-58
2022/10/27 08:05:29;;;;;;;2.30;0.90;;;18.50;55.60;;;;;;4881311;29;20068;-58
2022/10/27 08:07:57;;;;;;;1.98;1.02;;;18.50;54.60;;;;;;4881677;29;20072;-54
2022/10/27 08:10:25;;;;;;;2.70;1.10;;;18.50;56.40;;;;;;4880999;29;20055;-56
2022/10/27 08:12:52;;;;;;;5.90;0.98;;;18.50;54.00;;;;;;4881413;29;20048;-57
2022/10/27 08:15:18;;;;;;;2.13;1.02;;;18.50;56.50;;;;;;4880168;29;20060;-56
2022/10/27 08:17:52;;;;;;;4.38;1.23;;;18.50;56.90;;;;;;4881236;29;20124;-56
2022/10/27 08:20:21;;;;;;;1.45;0.80;;;18.50;56.40;;;;;;4880644;29;20045;-58
2022/10/27 08:22:58;;;;;;;2.15;1.25;;;18.50;56.60;;;;;;4881401;29;20148;-57
2022/10/27 08:25:26;;;;;;;2.40;0.90;;;18.60;54.80;;;;;;4881245;29;20045;-57
2022/10/27 08:27:53;;;;;;;2.05;0.80;;;18.50;53.60;;;;;;4881063;29;20464;-60
2022/10/27 08:30:22;;;;;;;4.45;1.42;;;18.50;55.50;;;;;;4880583;29;20053;-52
2022/10/27 08:32:49;;;;;;;2.30;0.95;;;18.50;58.20;;;;;;4881112;29;20048;-55
2022/10/27 08:35:16;;;;;;;3.67;1.52;;;18.60;57.40;;;;;;4880220;29;20415;-56
2022/10/27 08:37:43;;;;;;;3.30;1.17;;;18.60;58.40;;;;;;4881073;29;20085;-55
2022/10/27 08:40:10;;;;;;;4.85;1.25;;;18.60;57.80;;;;;;4880489;29;20052;-53
2022/10/27 08:43:07;;;;;;;4.28;0.95;;;18.60;54.10;;;;;;4880969;29;20567;-54
2022/10/27 08:45:48;;;;;;;1.30;0.80;;;18.60;58.40;;;;;;4881199;29;20049;-55
2022/10/27 08:48:24;;;;;;;3.47;1.38;;;18.50;59.70;;;;;;4880987;29;20384;-58
2022/10/27 08:50:51;;;;;;;3.13;0.88;;;18.50;58.00;;;;;;4880462;29;20041;-56
2022/10/27 08:53:29;;;;;;;4.88;0.80;;;18.60;58.20;;;;;;4880782;29;20045;-55
2022/10/27 08:56:08;;;;;;;2.20;0.63;;;18.60;60.00;;;;;;4880766;29;20515;-56
2022/10/27 08:58:47;;;;;;;1.48;0.63;;;18.60;57.30;;;;;;4880443;29;20045;-56
2022/10/27 09:01:36;;;;;;;1.33;1.05;;;18.60;56.30;;;;;;4880366;29;20045;-55
2022/10/27 09:04:21;;;;;;;2.90;1.25;;;18.60;57.40;;;;;;4880348;29;20595;-56
2022/10/27 09:07:18;;;;;;;1.67;0.90;;;18.60;54.90;;;;;;4880549;29;20045;-56
2022/10/27 09:09:53;;;;;;;2.33;1.05;;;18.60;58.00;;;;;;4880026;29;20052;-58
2022/10/27 09:12:41;;;;;;;1.65;1.15;;;18.60;60.20;;;;;;4880340;29;20415;-57
2022/10/27 09:15:36;;;;;;;2.42;1.05;;;18.60;55.10;;;;;;4880313;29;20041;-54
2022/10/27 09:18:12;;;;;;;1.63;0.88;;;18.60;55.50;;;;;;4880256;29;20049;-58
2022/10/27 09:20:52;;;;;;;2.90;1.10;;;18.60;53.20;;;;;;4880043;29;20060;-53
2022/10/27 09:23:48;;;;;;;2.28;0.80;;;18.60;53.30;;;;;;4880159;29;20049;-57
2022/10/27 09:26:18;;;;;;;2.40;1.30;;;18.60;56.40;;;;;;4880090;29;20057;-53
2022/10/27 09:28:50;;;;;;;3.85;1.00;;;18.60;56.50;;;;;;4879807;29;20053;-53
2022/10/27 09:31:42;;;;;;;2.45;0.90;;;18.60;55.80;;;;;;4879910;29;20456;-57
2022/10/27 09:34:26;;;;;;;2.53;1.08;;;18.60;56.10;;;;;;4880149;29;20049;-56
2022/10/27 09:36:54;;;;;;;1.52;0.80;;;18.60;56.50;;;;;;4880037;29;20056;-57
2022/10/27 09:39:21;;;;;;;3.15;1.00;;;18.60;55.90;;;;;;4879155;29;20069;-56
2022/10/27 09:41:48;;;;;;;2.30;0.95;;;18.60;56.30;;;;;;4879803;29;20093;-56
2022/10/27 09:44:23;;;;;;;1.38;0.80;;;18.60;54.00;;;;;;4880092;29;20132;-55
2022/10/27 09:46:55;;;;;;;3.45;0.80;;;18.60;54.60;;;;;;4879855;29;20405;-55
2022/10/27 09:49:38;;;;;;;1.25;0.68;;;18.60;57.60;;;;;;4879404;29;20045;-57
2022/10/27 09:52:14;;;;;;;1.52;0.85;;;18.60;55.80;;;;;;4879583;29;20053;-54
2022/10/27 09:54:50;;;;;;;3.08;0.75;;;18.60;57.60;;;;;;4880044;29;20049;-54
2022/10/27 09:57:31;;;;;;;1.45;0.57;;;18.60;57.10;;;;;;4879462;29;20109;-53
2022/10/27 10:00:00;;;;;;;2.13;0.60;;;18.60;54.90;;;;;;4879098;29;20056;-54
2022/10/27 10:02:39;;;;;;;0.80;0.60;;;18.70;57.40;;;;;;4879612;29;20057;-55
2022/10/27 10:05:23;;;;;;;4.15;0.77;;;18.70;56.10;;;;;;4879141;29;20053;-53
2022/10/27 10:07:49;;;;;;;6.90;1.35;;;18.70;54.60;;;;;;4879256;29;20052;-56
2022/10/27 10:10:19;;;;;;;6.15;0.90;;;18.70;55.60;;;;;;4878465;29;20052;-53
2022/10/27 10:13:05;;;;;;;2.78;0.82;;;18.70;55.40;;;;;;4879519;29;20064;-56
2022/10/27 10:15:42;;;;;;;1.92;1.10;;;18.70;59.00;;;;;;4879323;29;20045;-57
2022/10/27 10:18:25;;;;;;;2.92;1.38;;;18.70;56.70;;;;;;4879308;29;20068;-56
2022/10/27 10:20:57;;;;;;;3.72;1.70;;;18.80;59.00;;;;;;4879148;29;20491;-57
2022/10/27 10:23:28;;;;;;;3.42;1.10;;;18.80;55.70;;;;;;4877917;29;20085;-56
2022/10/27 10:26:00;;;;;;;1.33;0.73;;;18.80;57.00;;;;;;4879294;29;20556;-53
2022/10/27 10:28:40;;;;;;;1.10;0.67;;;18.80;58.30;;;;;;4878744;29;20051;-55
2022/10/27 10:31:10;;;;;;;1.27;0.82;;;18.80;55.80;;;;;;4878618;29;20519;-53
2022/10/27 10:33:40;;;;;;;3.45;1.85;;;18.80;58.40;;;;;;4879307;29;20136;-53
2022/10/27 10:36:16;;;;;;;2.28;0.93;;;18.80;56.50;;;;;;4878985;29;20037;-53
2022/10/27 10:38:52;;;;;;;5.05;0.85;;;18.80;59.30;;;;;;4878587;29;20056;-52
2022/10/27 10:41:22;;;;;;;2.85;1.20;;;18.80;57.30;;;;;;4878950;29;20383;-55
2022/10/27 10:44:10;;;;;;;3.38;0.70;;;18.80;58.00;;;;;;4879176;29;20055;-56
2022/10/27 10:46:53;;;;;;;1.92;0.50;;;18.80;58.30;;;;;;4879031;29;20049;-54
2022/10/27 10:49:26;;;;;;;2.25;0.98;;;18.80;56.70;;;;;;4878790;29;20045;-53
2022/10/27 10:51:58;;;;;;;1.73;0.63;;;18.80;55.70;;;;;;4878910;29;20045;-55
2022/10/27 10:54:39;;;;;;;5.15;1.10;;;18.80;56.70;;;;;;4878882;29;20041;-55
2022/10/27 10:57:40;;;;;;;3.40;1.00;;;18.80;57.20;;;;;;4879485;29;20041;-58
2022/10/27 11:00:15;;;;;;;2.67;0.95;;;18.90;58.40;;;;;;4882099;29;20068;-58
2022/10/27 11:03:09;;;;;;;2.25;0.65;;;18.90;57.50;;;;;;4882220;29;20049;-57
2022/10/27 11:05:37;;;;;;;3.78;0.90;;;18.90;57.60;;;;;;4882452;29;20487;-59
2022/10/27 11:08:05;;;;;;;1.25;0.93;;;18.80;59.50;;;;;;4882531;29;20528;-57
2022/10/27 11:10:36;;;;;;;1.90;0.85;;;18.90;56.90;;;;;;4882074;29;20120;-56
2022/10/27 11:13:15;;;;;;;2.63;1.17;;;18.90;57.90;;;;;;4882506;29;20353;-57
2022/10/27 11:15:51;;;;;;;3.78;1.05;;;18.90;54.90;;;;;;4882627;29;20476;-56
2022/10/27 11:18:24;;;;;;;2.00;0.70;;;18.90;56.70;;;;;;4882300;29;20118;-57
2022/10/27 11:21:30;;;;;;;1.77;0.60;;;18.90;55.40;;;;;;4882328;29;20100;-58
2022/10/27 11:24:15;;;;;;;1.13;0.57;;;18.90;53.20;;;;;;4882375;29;20059;-54
2022/10/27 11:27:16;;;;;;;3.25;0.70;;;18.90;54.20;;;;;;4882351;29;20474;-59
2022/10/27 11:30:02;;;;;;;4.22;0.90;;;18.90;56.30;;;;;;4881644;29;20049;-59
2022/10/27 11:32:48;;;;;;;2.20;0.77;;;18.90;56.20;;;;;;4881852;29;20041;-57
2022/10/27 11:35:46;;;;;;;3.38;0.65;;;18.90;54.60;;;;;;4881835;29;20069;-53
2022/10/27 11:38:44;;;;;;;1.77;0.45;;;18.90;52.90;;;;;;4881951;29;20041;-56
2022/10/27 11:41:28;;;;;;;1.17;0.68;;;18.90;55.40;;;;;;4852869;29;20399;-56
2022/10/27 11:44:19;;;;;;;3.28;0.82;;;18.90;56.00;;;;;;4881979;29;20049;-57
2022/10/27 11:46:58;;;;;;;2.67;0.68;;;18.90;54.20;;;;;;4882035;29;20491;-57
2022/10/27 11:49:42;;;;;;;2.75;0.60;;;18.90;55.90;;;;;;4881475;29;20084;-56
2022/10/27 11:52:27;;;;;;;1.42;0.70;;;18.90;56.00;;;;;;4881905;29;20049;-54
2022/10/27 11:54:55;;;;;;;2.88;1.20;;;18.90;53.50;;;;;;4881778;29;20051;-57
2022/10/27 11:57:53;;;;;;;2.83;0.82;;;18.90;56.50;;;;;;4881724;29;20112;-56
2022/10/27 12:00:23;;;;;;;1.63;1.00;;;18.90;54.70;;;;;;4881208;29;20059;-57
2022/10/27 12:03:20;;;;;;;1.13;0.45;;;18.90;56.00;;;;;;4881559;29;20056;-57
2022/10/27 12:06:06;;;;;;;1.50;0.70;;;18.90;54.40;;;;;;4881664;29;20052;-57
2022/10/27 12:08:48;;;;;;;2.10;0.60;;;18.90;55.30;;;;;;4880190;29;20392;-59
2022/10/27 12:11:33;;;;;;;1.85;0.60;;;18.90;54.40;;;;;;4881013;29;20041;-57
2022/10/27 12:14:13;;;;;;;3.78;0.70;;;18.90;53.60;;;;;;4881203;29;20052;-55
2022/10/27 12:16:50;;;;;;;2.17;0.80;;;18.90;54.50;;;;;;4881528;29;20549;-56
2022/10/27 12:19:28;;;;;;;1.73;0.70;;;18.90;52.60;;;;;;4880859;29;20071;-54
2022/10/27 12:22:16;;;;;;;1.67;0.68;;;18.90;51.50;;;;;;4881177;29;20132;-56
2022/10/27 12:24:58;;;;;;;1.80;0.85;;;18.90;53.90;;;;;;4881119;29;20049;-58
2022/10/27 12:27:38;;;;;;;1.65;0.63;;;18.90;51.30;;;;;;4881122;29;20045;-55
2022/10/27 12:30:14;;;;;;;1.90;0.77;;;18.90;53.80;;;;;;4880852;29;20163;-56
2022/10/27 12:32:52;;;;;;;2.28;0.93;;;18.90;51.40;;;;;;4880884;29;20141;-59
2022/10/27 12:35:33;;;;;;;2.67;0.70;;;18.90;53.70;;;;;;4880995;29;20044;-53
2022/10/27 12:38:10;;;;;;;1.38;0.60;;;18.90;53.00;;;;;;4880977;29;20049;-55
2022/10/27 12:40:42;;;;;;;3.83;0.80;;;18.90;51.30;;;;;;4880604;29;20595;-55
2022/10/27 12:43:50;;;;;;;1.70;0.40;;;18.90;51.20;;;;;;4880792;29;20052;-56
2022/10/27 12:46:47;;;;;;;1.20;0.70;;;18.90;54.00;;;;;;4805140;29;20066;-52
2022/10/27 12:49:36;;;;;;;2.17;0.75;;;18.90;54.70;;;;;;4880406;29;20447;-54
2022/10/27 12:52:24;;;;;;;1.20;0.60;;;18.90;54.60;;;;;;4880698;29;20081;-55
2022/10/27 12:55:16;;;;;;;2.63;0.70;;;18.90;52.30;;;;;;4880808;29;20057;-55
2022/10/27 12:57:49;;;;;;;2.25;0.52;;;18.90;53.40;;;;;;4880588;29;20491;-54
2022/10/27 13:00:21;;;;;;;1.63;0.70;;;18.90;52.00;;;;;;4880291;29;20045;-53
2022/10/27 13:03:07;;;;;;;1.77;0.80;;;18.90;49.70;;;;;;4879381;29;20486;-54
2022/10/27 13:05:47;;;;;;;1.50;0.70;;;18.90;54.20;;;;;;4880538;29;20052;-56
2022/10/27 13:08:26;;;;;;;2.10;1.15;;;18.90;52.70;;;;;;4880497;29;20546;-57
2022/10/27 13:11:08;;;;;;;1.15;0.50;;;18.90;53.60;;;;;;4880178;29;20064;-57
2022/10/27 13:13:51;;;;;;;1.05;0.30;;;19.00;54.00;;;;;;4880349;29;20128;-57
2022/10/27 13:16:36;;;;;;;2.00;0.70;;;18.90;54.50;;;;;;4880317;29;20105;-54
2022/10/27 13:19:24;;;;;;;4.30;1.10;;;19.00;53.30;;;;;;4880030;29;20049;-56